Time;durP1;ratioP1;P1;durP2;ratioP2;P2;SDS_P1;SDS_P2;PMS_P1;PMS_P2;Temp;Humidity;BMP_temperature;BMP_pressure;BME280_temperature;BME280_humidity;BME280_pressure;Samples;Min_cycle;Max_cycle;Signal;HPM_P1;HPM_P2
2023/06/12 00:02:05;;;;;;;7.68;3.00;;;;;;;;;;5113489;28;20092;-66
2023/06/12 00:04:30;;;;;;;8.20;3.20;;;;;;;;;;5069998;28;1260702;-66
2023/06/12 00:06:56;;;;;;;9.55;2.97;;;;;;;;;;5113056;27;20031;-66
2023/06/12 00:09:21;;;;;;;5.95;2.80;;;;;;;;;;5115111;28;20165;-66
2023/06/12 00:11:46;;;;;;;8.90;2.92;;;;;;;;;;5113809;28;20027;-66
2023/06/12 00:14:12;;;;;;;10.02;2.92;;;;;;;;;;5115081;28;20389;-66
2023/06/12 00:16:37;;;;;;;8.13;3.00;;;;;;;;;;5113963;28;20373;-66
2023/06/12 00:19:03;;;;;;;6.50;2.97;;;;;;;;;;5112671;27;20027;-66
2023/06/12 00:21:29;;;;;;;6.45;2.95;;;;;;;;;;5113885;27;20096;-66
2023/06/12 00:23:54;;;;;;;7.60;3.10;;;;;;;;;;5113729;28;20055;-66
2023/06/12 00:26:19;;;;;;;8.63;3.15;;;;;;;;;;5114443;28;20412;-66
2023/06/12 00:28:45;;;;;;;7.40;3.20;;;;;;;;;;5112354;28;20019;-66
2023/06/12 00:31:10;;;;;;;10.05;3.30;;;;;;;;;;5111524;28;20441;-66
2023/06/12 00:33:36;;;;;;;11.35;3.40;;;;;;;;;;5114628;28;20030;-66
2023/06/12 00:36:02;;;;;;;7.35;3.47;;;;;;;;;;5111771;27;20026;-66
2023/06/12 00:38:27;;;;;;;6.35;2.90;;;;;;;;;;5110688;28;20468;-66
2023/06/12 00:40:52;;;;;;;9.95;3.45;;;;;;;;;;5111362;28;20385;-66
2023/06/12 00:43:18;;;;;;;8.07;2.72;;;;;;;;;;5113661;28;20047;-66
2023/06/12 00:45:43;;;;;;;8.60;3.17;;;;;;;;;;5109700;27;20020;-66
2023/06/12 00:48:09;;;;;;;7.95;3.20;;;;;;;;;;5113325;28;20054;-66
2023/06/12 00:50:39;;;;;;;6.88;3.17;;;;;;;;;;5109121;28;20012;-66
2023/06/12 00:53:04;;;;;;;12.32;3.70;;;;;;;;;;5112251;28;20012;-66
2023/06/12 00:55:31;;;;;;;7.28;2.92;;;;;;;;;;5109239;27;20049;-66
2023/06/12 00:57:57;;;;;;;12.00;3.50;;;;;;;;;;5113063;27;20019;-67
2023/06/12 01:03:25;;;;;;;8.27;3.17;;;;;;;;;;5067860;22;20052;-67
2023/06/12 01:05:51;;;;;;;9.27;3.50;;;;;;;;;;5067049;28;20020;-66
2023/06/12 01:08:37;;;;;;;9.35;3.30;;;;;;;;;;5066488;28;20035;-67
2023/06/12 01:11:04;;;;;;;9.68;3.42;;;;;;;;;;5053762;28;20029;-66
2023/06/12 01:13:30;;;;;;;11.07;3.70;;;;;;;;;;5062339;28;20028;-67
2023/06/12 01:15:55;;;;;;;8.23;3.50;;;;;;;;;;5060735;28;21321;-66
2023/06/12 01:18:21;;;;;;;8.37;3.47;;;;;;;;;;5059005;28;20178;-66
2023/06/12 01:20:51;;;;;;;6.40;3.50;;;;;;;;;;5067898;28;20508;-66
2023/06/12 01:23:31;;;;;;;11.70;4.00;;;;;;;;;;5058944;28;20047;-66
2023/06/12 01:25:59;;;;;;;8.13;3.75;;;;;;;;;;5072841;28;20138;-66
2023/06/12 01:28:51;;;;;;;9.27;3.92;;;;;;;;;;5056189;28;20135;-66
2023/06/12 01:31:34;;;;;;;13.07;4.10;;;;;;;;;;5055703;28;20478;-66
2023/06/12 01:34:20;;;;;;;8.05;3.53;;;;;;;;;;5066345;28;20025;-66
2023/06/12 01:36:49;;;;;;;12.30;4.13;;;;;;;;;;5066539;28;20517;-66
2023/06/12 01:39:15;;;;;;;7.27;3.77;;;;;;;;;;5068585;28;20024;-67
2023/06/12 01:41:41;;;;;;;8.70;4.10;;;;;;;;;;5066290;28;20031;-68
2023/06/12 01:44:07;;;;;;;8.57;4.18;;;;;;;;;;5068654;28;20036;-67
2023/06/12 01:46:32;;;;;;;9.37;4.30;;;;;;;;;;5056519;28;20377;-68
2023/06/12 01:48:58;;;;;;;10.67;4.37;;;;;;;;;;5052487;28;20097;-68
2023/06/12 01:51:23;;;;;;;11.97;4.20;;;;;;;;;;5056795;28;20021;-68
2023/06/12 01:53:48;;;;;;;10.50;4.53;;;;;;;;;;5071362;28;20036;-68
2023/06/12 01:56:14;;;;;;;8.77;4.43;;;;;;;;;;5051250;28;20049;-68
2023/06/12 01:58:39;;;;;;;8.57;4.47;;;;;;;;;;5063963;28;20027;-68
2023/06/12 02:01:05;;;;;;;11.47;4.20;;;;;;;;;;5059560;28;20375;-67
2023/06/12 02:03:32;;;;;;;12.13;4.70;;;;;;;;;;5071299;28;20058;-66
2023/06/12 02:05:57;;;;;;;11.13;4.50;;;;;;;;;;5046349;28;20039;-66
2023/06/12 02:08:22;;;;;;;12.57;4.50;;;;;;;;;;5062330;28;20013;-66
2023/06/12 02:10:48;;;;;;;8.80;4.40;;;;;;;;;;5059339;28;20424;-66
2023/06/12 02:13:13;;;;;;;13.40;4.57;;;;;;;;;;5068608;28;20024;-66
2023/06/12 02:15:39;;;;;;;10.33;3.90;;;;;;;;;;5057819;28;20036;-66
2023/06/12 02:18:04;;;;;;;10.20;4.00;;;;;;;;;;5059310;28;20052;-66
2023/06/12 02:20:30;;;;;;;13.67;4.13;;;;;;;;;;5053843;28;20021;-66
2023/06/12 02:22:55;;;;;;;12.27;4.77;;;;;;;;;;5052542;28;20021;-66
2023/06/12 02:25:20;;;;;;;12.33;4.67;;;;;;;;;;5070026;28;20436;-66
2023/06/12 02:27:45;;;;;;;8.37;4.83;;;;;;;;;;5065772;28;20108;-67
2023/06/12 02:30:11;;;;;;;8.97;4.40;;;;;;;;;;5062584;28;20028;-67
2023/06/12 02:32:38;;;;;;;8.33;4.70;;;;;;;;;;5062091;28;20086;-68
2023/06/12 02:35:08;;;;;;;11.97;5.00;;;;;;;;;;5069915;28;20035;-68
2023/06/12 02:37:34;;;;;;;11.73;5.30;;;;;;;;;;5057572;28;20025;-65
2023/06/12 02:39:59;;;;;;;10.83;5.00;;;;;;;;;;5068988;28;20553;-66
2023/06/12 02:42:25;;;;;;;10.20;4.70;;;;;;;;;;5070882;28;20029;-66
2023/06/12 02:44:50;;;;;;;8.93;4.80;;;;;;;;;;5066136;28;20544;-66
2023/06/12 02:47:16;;;;;;;10.77;5.23;;;;;;;;;;5053422;28;20024;-66
2023/06/12 02:49:44;;;;;;;14.00;4.90;;;;;;;;;;5060805;28;20083;-66
2023/06/12 02:52:10;;;;;;;12.43;5.43;;;;;;;;;;5066934;28;20027;-66
2023/06/12 02:54:35;;;;;;;9.63;5.43;;;;;;;;;;5068155;28;20020;-66
2023/06/12 02:57:00;;;;;;;10.73;5.20;;;;;;;;;;5054307;28;20382;-66
2023/06/12 02:59:26;;;;;;;10.27;5.70;;;;;;;;;;5067282;28;20060;-67
2023/06/12 03:01:51;;;;;;;8.43;4.87;;;;;;;;;;5064995;28;20086;-66
2023/06/12 03:04:20;;;;;;;12.17;5.07;;;;;;;;;;5053717;28;20098;-66
2023/06/12 03:06:47;;;;;;;14.27;5.33;;;;;;;;;;5061237;28;20028;-67
2023/06/12 03:09:15;;;;;;;11.33;5.10;;;;;;;;;;5052656;28;20039;-66
2023/06/12 03:11:40;;;;;;;11.67;5.10;;;;;;;;;;5060070;28;20165;-66
2023/06/12 03:14:07;;;;;;;13.37;5.50;;;;;;;;;;5070251;28;20150;-66
2023/06/12 03:16:32;;;;;;;10.93;5.37;;;;;;;;;;5059579;28;20020;-66
2023/06/12 03:18:58;;;;;;;17.77;5.97;;;;;;;;;;5063385;28;20379;-66
2023/06/12 03:21:23;;;;;;;9.47;5.47;;;;;;;;;;5073482;28;20500;-66
2023/06/12 03:23:48;;;;;;;10.67;5.27;;;;;;;;;;5067139;28;20037;-66
2023/06/12 03:26:14;;;;;;;9.07;5.47;;;;;;;;;;5060388;28;20027;-67
2023/06/12 03:28:39;;;;;;;13.53;5.57;;;;;;;;;;5062071;28;20025;-66
2023/06/12 03:31:05;;;;;;;12.63;4.93;;;;;;;;;;5069269;28;20123;-66
2023/06/12 03:33:30;;;;;;;14.30;4.73;;;;;;;;;;5065050;28;20031;-66
2023/06/12 03:35:55;;;;;;;10.80;5.20;;;;;;;;;;5069973;28;20029;-65
2023/06/12 03:38:20;;;;;;;10.43;5.27;;;;;;;;;;5054315;28;20036;-66
2023/06/12 03:40:46;;;;;;;13.00;5.60;;;;;;;;;;5069094;28;20037;-66
2023/06/12 03:43:11;;;;;;;11.43;5.10;;;;;;;;;;5064253;28;20474;-66
2023/06/12 03:45:36;;;;;;;10.07;5.10;;;;;;;;;;5060598;28;20025;-66
2023/06/12 03:48:03;;;;;;;9.73;4.93;;;;;;;;;;5053890;28;20151;-66
2023/06/12 03:50:28;;;;;;;8.27;4.93;;;;;;;;;;5054877;28;20459;-66
2023/06/12 03:52:53;;;;;;;10.83;4.90;;;;;;;;;;5066080;28;20035;-66
2023/06/12 03:55:20;;;;;;;14.98;5.03;;;;;;;;;;5071647;28;20083;-66
2023/06/12 03:57:45;;;;;;;10.33;4.87;;;;;;;;;;5057397;28;20066;-66
2023/06/12 04:00:11;;;;;;;11.07;5.05;;;;;;;;;;5058773;28;20028;-65
2023/06/12 04:02:36;;;;;;;10.48;4.95;;;;;;;;;;5060662;28;20048;-66
2023/06/12 04:05:02;;;;;;;9.95;4.75;;;;;;;;;;5054632;28;20052;-66
2023/06/12 04:07:28;;;;;;;11.02;4.55;;;;;;;;;;5054080;28;20021;-65
2023/06/12 04:09:54;;;;;;;9.30;4.13;;;;;;;;;;5054438;28;20071;-65
2023/06/12 04:12:19;;;;;;;11.77;4.97;;;;;;;;;;5053584;28;20024;-65
2023/06/12 04:14:45;;;;;;;11.52;4.50;;;;;;;;;;5052573;28;20030;-65
2023/06/12 04:17:10;;;;;;;9.05;4.35;;;;;;;;;;5051730;28;20049;-65
2023/06/12 04:19:36;;;;;;;8.18;4.20;;;;;;;;;;5053979;28;20039;-65
2023/06/12 04:22:02;;;;;;;11.95;4.25;;;;;;;;;;5051052;28;20082;-64
2023/06/12 04:24:30;;;;;;;8.82;4.47;;;;;;;;;;5072100;28;20017;-67
2023/06/12 04:27:08;;;;;;;12.25;4.85;;;;;;;;;;5058731;28;20013;-66
2023/06/12 04:29:33;;;;;;;9.68;4.38;;;;;;;;;;5060904;28;20021;-67
2023/06/12 04:31:59;;;;;;;9.38;4.22;;;;;;;;;;5050014;28;20028;-66
2023/06/12 04:34:25;;;;;;;9.18;4.38;;;;;;;;;;5045640;28;20021;-66
2023/06/12 04:36:52;;;;;;;6.63;4.00;;;;;;;;;;5064427;28;20028;-66
2023/06/12 04:39:19;;;;;;;8.95;4.43;;;;;;;;;;5069635;28;20021;-67
2023/06/12 04:41:47;;;;;;;13.10;4.65;;;;;;;;;;5061823;28;20371;-66
2023/06/12 04:44:12;;;;;;;11.90;4.57;;;;;;;;;;5036836;28;20056;-65
2023/06/12 04:46:37;;;;;;;9.35;4.60;;;;;;;;;;5037604;28;20055;-66
2023/06/12 04:49:03;;;;;;;10.15;4.50;;;;;;;;;;5059370;28;20110;-66
2023/06/12 04:51:28;;;;;;;10.68;4.50;;;;;;;;;;5050114;28;20028;-66
2023/06/12 04:53:55;;;;;;;10.15;4.93;;;;;;;;;;5071620;28;20535;-66
2023/06/12 04:56:21;;;;;;;9.65;4.90;;;;;;;;;;5063723;28;20020;-66
2023/06/12 04:58:46;;;;;;;8.60;5.22;;;;;;;;;;5054647;28;20029;-66
2023/06/12 05:01:12;;;;;;;9.57;5.32;;;;;;;;;;5058741;28;20112;-65
2023/06/12 05:03:38;;;;;;;6.38;4.03;;;;;;;;;;5050130;28;20053;-66
2023/06/12 05:06:04;;;;;;;8.98;5.15;;;;;;;;;;5063752;28;20078;-66
2023/06/12 05:08:30;;;;;;;13.32;5.30;;;;;;;;;;5068397;28;20378;-66
2023/06/12 05:10:55;;;;;;;9.30;4.70;;;;;;;;;;5066300;28;20048;-65
2023/06/12 05:13:20;;;;;;;11.32;5.05;;;;;;;;;;5064189;28;20085;-65
2023/06/12 05:15:46;;;;;;;10.15;5.25;;;;;;;;;;5062641;28;20047;-65
2023/06/12 05:18:11;;;;;;;12.57;5.30;;;;;;;;;;5050822;28;20044;-65
2023/06/12 05:20:36;;;;;;;8.40;4.85;;;;;;;;;;5047243;28;20031;-67
2023/06/12 05:23:02;;;;;;;8.50;5.28;;;;;;;;;;5049732;28;20432;-66
2023/06/12 05:25:27;;;;;;;11.07;5.75;;;;;;;;;;5051599;28;20026;-66
2023/06/12 05:27:53;;;;;;;11.02;5.63;;;;;;;;;;5063783;28;20386;-66
2023/06/12 05:30:18;;;;;;;9.48;5.93;;;;;;;;;;5064510;28;20036;-67
2023/06/12 05:32:43;;;;;;;9.60;5.50;;;;;;;;;;5051632;28;20021;-66
2023/06/12 05:35:09;;;;;;;10.13;5.70;;;;;;;;;;5051068;28;20047;-66
2023/06/12 05:37:34;;;;;;;11.23;5.65;;;;;;;;;;5064490;28;20033;-66
2023/06/12 05:39:59;;;;;;;11.43;5.78;;;;;;;;;;5056371;28;20036;-66
2023/06/12 05:42:25;;;;;;;9.98;5.85;;;;;;;;;;5055848;28;20059;-67
2023/06/12 05:44:50;;;;;;;9.85;5.80;;;;;;;;;;5072744;28;20024;-66
2023/06/12 05:47:15;;;;;;;10.77;5.90;;;;;;;;;;5053117;28;20024;-66
2023/06/12 05:49:41;;;;;;;9.10;5.85;;;;;;;;;;5052952;28;20021;-67
2023/06/12 05:52:07;;;;;;;11.18;6.50;;;;;;;;;;5050144;28;20631;-67
2023/06/12 05:54:32;;;;;;;10.05;6.35;;;;;;;;;;5052846;28;20025;-67
2023/06/12 05:56:57;;;;;;;9.75;5.70;;;;;;;;;;5051804;28;20033;-68
2023/06/12 05:59:25;;;;;;;12.10;6.32;;;;;;;;;;5072850;28;20043;-68
2023/06/12 06:01:50;;;;;;;8.77;5.90;;;;;;;;;;5057934;28;20598;-68
2023/06/12 06:04:16;;;;;;;9.73;5.78;;;;;;;;;;5052806;28;20140;-68
2023/06/12 06:06:41;;;;;;;13.02;7.40;;;;;;;;;;5052498;28;20387;-68
2023/06/12 06:09:07;;;;;;;9.20;6.10;;;;;;;;;;5052785;28;20021;-68
2023/06/12 06:11:34;;;;;;;12.68;7.00;;;;;;;;;;5045968;28;20493;-68
2023/06/12 06:13:59;;;;;;;17.10;6.53;;;;;;;;;;5064812;28;20062;-69
2023/06/12 06:16:25;;;;;;;14.13;6.35;;;;;;;;;;5053950;28;20029;-68
2023/06/12 06:18:50;;;;;;;11.30;6.03;;;;;;;;;;5052726;28;20021;-68
2023/06/12 06:21:16;;;;;;;9.02;6.25;;;;;;;;;;5055136;28;20119;-68
2023/06/12 06:23:41;;;;;;;13.00;6.85;;;;;;;;;;5049952;28;20060;-67
2023/06/12 06:26:06;;;;;;;12.05;6.43;;;;;;;;;;5051980;28;20019;-68
2023/06/12 06:28:31;;;;;;;19.15;7.47;;;;;;;;;;5069009;28;20025;-67
2023/06/12 06:30:59;;;;;;;14.68;7.15;;;;;;;;;;5061472;28;20021;-68
2023/06/12 06:33:24;;;;;;;15.40;6.50;;;;;;;;;;5060114;28;20107;-68
2023/06/12 06:35:50;;;;;;;13.02;6.50;;;;;;;;;;5068068;28;20131;-67
2023/06/12 06:38:20;;;;;;;11.23;6.47;;;;;;;;;;5068429;28;20021;-69
2023/06/12 06:40:46;;;;;;;10.95;6.68;;;;;;;;;;5064791;28;20497;-67
2023/06/12 06:43:11;;;;;;;9.63;6.22;;;;;;;;;;5060453;28;20032;-68
2023/06/12 06:45:37;;;;;;;13.15;6.13;;;;;;;;;;5070219;28;20116;-68
2023/06/12 06:48:02;;;;;;;14.38;6.38;;;;;;;;;;5057133;28;20017;-68
2023/06/12 06:50:27;;;;;;;9.45;6.30;;;;;;;;;;5075755;28;20374;-68
2023/06/12 06:52:53;;;;;;;10.00;6.18;;;;;;;;;;5060071;28;20017;-68
2023/06/12 06:55:19;;;;;;;9.50;5.60;;;;;;;;;;5056983;28;20022;-69
2023/06/12 06:57:44;;;;;;;11.32;5.93;;;;;;;;;;5051886;28;20367;-67
2023/06/12 07:00:11;;;;;;;12.10;6.10;;;;;;;;;;5065171;28;20032;-67
2023/06/12 07:02:38;;;;;;;11.75;5.93;;;;;;;;;;5057086;28;20091;-66
2023/06/12 07:05:04;;;;;;;7.43;5.50;;;;;;;;;;5054654;28;20501;-69
2023/06/12 07:07:29;;;;;;;6.78;4.93;;;;;;;;;;5052895;28;20018;-68
2023/06/12 07:09:54;;;;;;;8.70;5.47;;;;;;;;;;5047846;28;20032;-67
2023/06/12 07:12:20;;;;;;;11.25;5.15;;;;;;;;;;5049466;28;20029;-69
2023/06/12 07:14:45;;;;;;;11.35;5.25;;;;;;;;;;5048680;28;20039;-68
2023/06/12 07:17:10;;;;;;;10.15;5.65;;;;;;;;;;5027607;28;20522;-69
2023/06/12 07:19:36;;;;;;;11.07;6.47;;;;;;;;;;5035197;28;20104;-69
2023/06/12 07:22:01;;;;;;;9.80;5.43;;;;;;;;;;5051300;28;20032;-68
2023/06/12 07:24:26;;;;;;;7.25;5.60;;;;;;;;;;5052946;28;20032;-68
2023/06/12 07:26:52;;;;;;;9.23;5.47;;;;;;;;;;5054762;28;20165;-69
2023/06/12 07:29:18;;;;;;;11.00;5.53;;;;;;;;;;5051068;28;20474;-69
2023/06/12 07:31:43;;;;;;;8.35;5.05;;;;;;;;;;5050716;28;20017;-68
2023/06/12 07:34:08;;;;;;;11.38;5.75;;;;;;;;;;5054580;28;20025;-70
2023/06/12 07:36:35;;;;;;;8.07;4.57;;;;;;;;;;5054931;28;20060;-70
2023/06/12 07:39:03;;;;;;;8.23;5.25;;;;;;;;;;5062595;28;20067;-70
2023/06/12 07:41:29;;;;;;;8.70;5.05;;;;;;;;;;5054789;28;20478;-67
2023/06/12 07:43:54;;;;;;;8.73;4.95;;;;;;;;;;5057306;28;20074;-71
2023/06/12 07:46:20;;;;;;;11.32;5.40;;;;;;;;;;5063189;28;20028;-70
2023/06/12 07:48:45;;;;;;;7.65;5.20;;;;;;;;;;5063692;28;20020;-70
2023/06/12 07:51:10;;;;;;;8.30;5.13;;;;;;;;;;5070029;28;20089;-70
2023/06/12 07:53:35;;;;;;;7.93;5.10;;;;;;;;;;5074805;28;20029;-70
2023/06/12 07:56:01;;;;;;;6.90;5.03;;;;;;;;;;5065224;28;20470;-70
2023/06/12 07:58:27;;;;;;;8.98;4.72;;;;;;;;;;5053043;28;20021;-69
2023/06/12 08:00:55;;;;;;;9.13;4.80;;;;;;;;;;5049609;28;20065;-70
2023/06/12 08:03:24;;;;;;;8.63;5.40;;;;;;;;;;5053718;28;20110;-71
2023/06/12 08:05:53;;;;;;;10.15;4.90;;;;;;;;;;5054630;28;20396;-70
2023/06/12 08:08:18;;;;;;;7.30;4.72;;;;;;;;;;5054126;28;20092;-70
2023/06/12 08:10:44;;;;;;;7.07;4.78;;;;;;;;;;5065892;28;20060;-71
2023/06/12 08:13:09;;;;;;;6.80;4.60;;;;;;;;;;5074256;28;20025;-71
2023/06/12 08:15:35;;;;;;;7.97;4.30;;;;;;;;;;5057757;28;20100;-71
2023/06/12 08:18:00;;;;;;;8.05;4.30;;;;;;;;;;5054421;28;20471;-70
2023/06/12 08:20:25;;;;;;;8.68;4.63;;;;;;;;;;5053308;28;20025;-71
2023/06/12 08:22:54;;;;;;;7.82;4.45;;;;;;;;;;5058859;28;20013;-70
2023/06/12 08:25:20;;;;;;;8.20;4.68;;;;;;;;;;5054087;28;20052;-71
2023/06/12 08:27:45;;;;;;;6.95;4.63;;;;;;;;;;5053644;28;20435;-70
2023/06/12 08:30:11;;;;;;;6.82;4.40;;;;;;;;;;5050314;28;20146;-68
2023/06/12 08:32:36;;;;;;;6.68;4.05;;;;;;;;;;5069047;28;20024;-70
2023/06/12 08:35:02;;;;;;;6.65;3.95;;;;;;;;;;5074100;28;20021;-71
2023/06/12 08:37:28;;;;;;;8.13;4.53;;;;;;;;;;5073902;28;20032;-70
2023/06/12 08:39:53;;;;;;;7.53;4.50;;;;;;;;;;5073882;28;20474;-70
2023/06/12 08:42:21;;;;;;;6.15;4.57;;;;;;;;;;5070063;28;20032;-70
2023/06/12 08:44:46;;;;;;;7.10;4.43;;;;;;;;;;5062853;28;20025;-70
2023/06/12 08:47:13;;;;;;;7.03;4.63;;;;;;;;;;5050901;28;20035;-69
2023/06/12 08:49:38;;;;;;;6.72;4.38;;;;;;;;;;5041261;28;20532;-69
2023/06/12 08:52:04;;;;;;;7.15;4.65;;;;;;;;;;5047851;28;20017;-69
2023/06/12 08:54:33;;;;;;;6.10;4.20;;;;;;;;;;5048531;28;20033;-68
2023/06/12 08:56:59;;;;;;;8.57;4.40;;;;;;;;;;5049176;28;20024;-70
2023/06/12 08:59:24;;;;;;;9.27;5.03;;;;;;;;;;5050208;28;20486;-69
2023/06/12 09:01:56;;;;;;;6.40;4.13;;;;;;;;;;5049206;28;20410;-68
2023/06/12 09:04:45;;;;;;;10.23;4.45;;;;;;;;;;5044238;28;20510;-69
2023/06/12 09:07:11;;;;;;;6.10;4.00;;;;;;;;;;5039330;28;20056;-70
2023/06/12 09:09:39;;;;;;;9.10;4.75;;;;;;;;;;5050802;28;20191;-70
2023/06/12 09:12:06;;;;;;;6.63;4.60;;;;;;;;;;5052742;28;20466;-70
2023/06/12 09:14:35;;;;;;;10.60;4.85;;;;;;;;;;5051671;28;20538;-69
2023/06/12 09:17:03;;;;;;;7.38;4.53;;;;;;;;;;5043971;28;20435;-70
2023/06/12 09:19:43;;;;;;;6.68;4.45;;;;;;;;;;5050828;28;20021;-70
2023/06/12 09:22:08;;;;;;;10.63;5.03;;;;;;;;;;5047815;28;20021;-69
2023/06/12 09:24:34;;;;;;;11.98;4.30;;;;;;;;;;5050735;28;20047;-70
2023/06/12 09:27:00;;;;;;;9.65;4.60;;;;;;;;;;5056485;28;20382;-70
2023/06/12 09:29:32;;;;;;;6.75;4.40;;;;;;;;;;5053291;28;20021;-68
2023/06/12 09:31:58;;;;;;;9.00;4.50;;;;;;;;;;5055697;28;20103;-70
2023/06/12 09:34:24;;;;;;;6.10;4.30;;;;;;;;;;5064605;28;20501;-70
2023/06/12 09:36:49;;;;;;;6.95;4.45;;;;;;;;;;5051901;28;20029;-70
2023/06/12 09:39:15;;;;;;;7.05;4.03;;;;;;;;;;5050687;28;20052;-70
2023/06/12 09:41:50;;;;;;;7.68;4.07;;;;;;;;;;5060598;28;20025;-71
2023/06/12 09:44:22;;;;;;;7.22;4.43;;;;;;;;;;5037521;28;20025;-72
2023/06/12 09:46:48;;;;;;;8.50;4.53;;;;;;;;;;5058010;28;20017;-72
2023/06/12 09:49:13;;;;;;;6.57;4.30;;;;;;;;;;5052865;28;20375;-71
2023/06/12 09:51:41;;;;;;;6.28;4.10;;;;;;;;;;5055944;28;20409;-71
2023/06/12 09:54:07;;;;;;;7.38;4.28;;;;;;;;;;5052704;28;20025;-70
2023/06/12 09:56:33;;;;;;;6.25;4.63;;;;;;;;;;5051640;28;20364;-72
2023/06/12 09:58:59;;;;;;;7.78;4.60;;;;;;;;;;5052864;28;20482;-72
2023/06/12 10:01:25;;;;;;;8.35;4.50;;;;;;;;;;5050000;28;20099;-69
2023/06/12 10:03:53;;;;;;;7.28;4.75;;;;;;;;;;5043033;28;20511;-70
2023/06/12 10:06:18;;;;;;;7.15;4.72;;;;;;;;;;5047950;28;20497;-70
2023/06/12 10:08:43;;;;;;;7.22;4.10;;;;;;;;;;5040435;28;20024;-70
2023/06/12 10:11:10;;;;;;;5.38;2.50;;;;;;;;;;5034197;28;20040;-70
2023/06/12 10:13:35;;;;;;;5.30;3.05;;;;;;;;;;5050962;28;20489;-72
2023/06/12 10:16:01;;;;;;;6.03;3.10;;;;;;;;;;5049423;28;20014;-70
2023/06/12 10:18:28;;;;;;;5.30;3.00;;;;;;;;;;5055665;28;20033;-67
2023/06/12 10:20:53;;;;;;;6.93;3.63;;;;;;;;;;5048826;28;20108;-70
2023/06/12 10:23:19;;;;;;;8.00;3.65;;;;;;;;;;5058936;28;20104;-69
2023/06/12 10:25:46;;;;;;;8.02;3.67;;;;;;;;;;5065251;28;20025;-69
2023/06/12 10:28:11;;;;;;;6.40;3.90;;;;;;;;;;5054423;28;20017;-69
2023/06/12 10:30:36;;;;;;;10.07;4.22;;;;;;;;;;5032685;28;20048;-70
2023/06/12 10:33:14;;;;;;;7.28;3.50;;;;;;;;;;5058379;28;20025;-69
2023/06/12 10:35:39;;;;;;;7.75;4.30;;;;;;;;;;5046072;28;20398;-70
2023/06/12 10:38:04;;;;;;;12.45;4.28;;;;;;;;;;5055056;28;20021;-69
2023/06/12 10:40:30;;;;;;;7.20;3.58;;;;;;;;;;5055157;28;20025;-70
2023/06/12 10:43:03;;;;;;;5.60;3.75;;;;;;;;;;5050186;28;20378;-70
2023/06/12 10:45:32;;;;;;;7.75;4.00;;;;;;;;;;5044271;28;20525;-71
2023/06/12 10:48:24;;;;;;;7.72;3.78;;;;;;;;;;5055784;28;20021;-69
2023/06/12 10:50:53;;;;;;;6.43;3.67;;;;;;;;;;5049447;28;20112;-69
2023/06/12 10:53:27;;;;;;;8.30;4.28;;;;;;;;;;5054095;28;20481;-70
2023/06/12 10:56:03;;;;;;;5.72;3.63;;;;;;;;;;5051003;28;20060;-71
2023/06/12 10:58:33;;;;;;;6.18;4.28;;;;;;;;;;5051930;28;20025;-69
2023/06/12 11:01:00;;;;;;;6.78;3.75;;;;;;;;;;5062604;28;20470;-70
2023/06/12 11:03:28;;;;;;;6.80;4.15;;;;;;;;;;5056434;28;20055;-70
2023/06/12 11:05:55;;;;;;;8.15;3.40;;;;;;;;;;5053676;28;20088;-69
2023/06/12 11:08:21;;;;;;;6.55;3.38;;;;;;;;;;5055686;28;20467;-70
2023/06/12 11:10:46;;;;;;;5.40;3.30;;;;;;;;;;5052038;28;20040;-71
2023/06/12 11:13:11;;;;;;;6.60;3.75;;;;;;;;;;5053721;28;20025;-70
2023/06/12 11:15:41;;;;;;;4.90;3.60;;;;;;;;;;5059353;28;20073;-71
2023/06/12 11:18:07;;;;;;;7.13;3.53;;;;;;;;;;5071469;28;20508;-71
2023/06/12 11:20:33;;;;;;;6.65;3.58;;;;;;;;;;5073819;28;20027;-70
2023/06/12 11:23:00;;;;;;;6.22;4.10;;;;;;;;;;5054723;28;20029;-71
2023/06/12 11:25:26;;;;;;;5.88;3.55;;;;;;;;;;5055372;28;20074;-71
2023/06/12 11:27:52;;;;;;;6.25;4.10;;;;;;;;;;5060325;28;20466;-71
2023/06/12 11:30:17;;;;;;;7.15;3.95;;;;;;;;;;5057675;28;20270;-70
2023/06/12 11:32:42;;;;;;;6.97;3.50;;;;;;;;;;5054732;28;20012;-69
2023/06/12 11:35:09;;;;;;;10.27;3.50;;;;;;;;;;5054569;28;20087;-70
2023/06/12 11:37:36;;;;;;;9.70;3.78;;;;;;;;;;5054189;28;20059;-72
2023/06/12 11:40:09;;;;;;;5.72;3.55;;;;;;;;;;5053368;28;20029;-72
2023/06/12 11:42:35;;;;;;;8.23;3.70;;;;;;;;;;5054889;28;20025;-72
2023/06/12 11:45:01;;;;;;;5.45;3.58;;;;;;;;;;5052873;28;20512;-71
2023/06/12 11:47:27;;;;;;;8.25;3.67;;;;;;;;;;5053739;28;20060;-71
2023/06/12 11:49:52;;;;;;;6.20;3.88;;;;;;;;;;5059897;28;20052;-69
2023/06/12 11:52:19;;;;;;;5.55;3.35;;;;;;;;;;5052560;28;20036;-71
2023/06/12 11:54:54;;;;;;;6.63;3.65;;;;;;;;;;5053112;28;20020;-72
2023/06/12 11:57:22;;;;;;;6.50;3.42;;;;;;;;;;5061636;28;20033;-72
2023/06/12 11:59:47;;;;;;;5.35;3.67;;;;;;;;;;5055351;28;20053;-71
2023/06/12 12:02:13;;;;;;;5.25;3.60;;;;;;;;;;5054070;28;20044;-71
2023/06/12 12:04:38;;;;;;;6.93;4.13;;;;;;;;;;5052145;28;20082;-70
2023/06/12 12:07:03;;;;;;;7.00;4.05;;;;;;;;;;5053539;28;20035;-71
2023/06/12 12:09:29;;;;;;;5.97;3.08;;;;;;;;;;5047117;28;20017;-71
2023/06/12 12:11:54;;;;;;;5.25;3.47;;;;;;;;;;5048325;28;20017;-72
2023/06/12 12:14:19;;;;;;;5.13;3.13;;;;;;;;;;5052478;28;20029;-73
2023/06/12 12:16:45;;;;;;;8.10;3.30;;;;;;;;;;5053628;28;20414;-71
2023/06/12 12:19:29;;;;;;;6.85;3.80;;;;;;;;;;5052570;28;20025;-70
2023/06/12 12:21:58;;;;;;;7.13;4.25;;;;;;;;;;5053547;28;20411;-71
2023/06/12 12:24:23;;;;;;;6.80;3.88;;;;;;;;;;5050430;28;20462;-70
2023/06/12 12:26:51;;;;;;;7.57;3.95;;;;;;;;;;5053097;28;20025;-71
2023/06/12 12:29:16;;;;;;;7.13;4.13;;;;;;;;;;5059515;28;20020;-73
2023/06/12 12:31:41;;;;;;;8.90;3.65;;;;;;;;;;5057021;28;20017;-72
2023/06/12 12:34:08;;;;;;;7.28;3.33;;;;;;;;;;5053466;28;20025;-74
2023/06/12 12:36:33;;;;;;;6.78;3.50;;;;;;;;;;5035229;28;20474;-72
2023/06/12 12:38:59;;;;;;;5.68;3.50;;;;;;;;;;5051983;28;20027;-73
2023/06/12 12:41:26;;;;;;;6.30;3.50;;;;;;;;;;5053546;28;20092;-75
2023/06/12 12:43:51;;;;;;;5.78;3.38;;;;;;;;;;5054993;28;20523;-71
2023/06/12 12:46:17;;;;;;;6.60;3.45;;;;;;;;;;5062259;28;20021;-74
2023/06/12 12:48:42;;;;;;;6.10;3.10;;;;;;;;;;5057403;28;20016;-72
2023/06/12 12:51:07;;;;;;;5.85;3.00;;;;;;;;;;5073489;28;20017;-71
2023/06/12 12:53:32;;;;;;;5.68;3.15;;;;;;;;;;5073544;28;20024;-74
2023/06/12 12:55:58;;;;;;;7.10;3.88;;;;;;;;;;5060595;28;20108;-74
2023/06/12 12:58:23;;;;;;;6.28;3.33;;;;;;;;;;5052965;28;20033;-75
2023/06/12 13:00:48;;;;;;;5.28;2.97;;;;;;;;;;5058330;28;20032;-73
2023/06/12 13:03:14;;;;;;;5.95;3.60;;;;;;;;;;5052874;28;20055;-74
2023/06/12 13:05:39;;;;;;;5.72;3.22;;;;;;;;;;5052940;28;20033;-74
2023/06/12 13:08:04;;;;;;;8.52;3.47;;;;;;;;;;5052569;28;20352;-73
2023/06/12 13:10:29;;;;;;;6.13;3.40;;;;;;;;;;5054324;28;20412;-75
2023/06/12 13:12:55;;;;;;;5.45;3.13;;;;;;;;;;5073462;28;20052;-75
2023/06/12 13:15:20;;;;;;;6.90;3.30;;;;;;;;;;5069777;28;20024;-75
2023/06/12 13:17:45;;;;;;;7.70;3.50;;;;;;;;;;5053703;28;20037;-74
2023/06/12 13:20:11;;;;;;;5.22;3.20;;;;;;;;;;5052711;28;20490;-73
2023/06/12 13:22:36;;;;;;;6.72;3.60;;;;;;;;;;5073378;28;20024;-73
2023/06/12 13:25:02;;;;;;;5.75;3.13;;;;;;;;;;5072957;28;20028;-73
2023/06/12 13:27:28;;;;;;;6.20;3.35;;;;;;;;;;5073157;28;20039;-75
2023/06/12 13:29:53;;;;;;;4.75;3.10;;;;;;;;;;5070532;28;20016;-76
2023/06/12 13:32:18;;;;;;;6.70;2.97;;;;;;;;;;5058114;28;20501;-75
2023/06/12 13:34:43;;;;;;;8.05;3.45;;;;;;;;;;5052930;28;20021;-73
2023/06/12 13:37:09;;;;;;;4.72;2.95;;;;;;;;;;5052881;28;20104;-72
2023/06/12 13:39:34;;;;;;;6.25;2.92;;;;;;;;;;5051629;28;20021;-73
2023/06/12 13:41:59;;;;;;;6.10;3.10;;;;;;;;;;5051771;28;20075;-74
2023/06/12 13:44:25;;;;;;;5.53;2.50;;;;;;;;;;5053622;28;20048;-71
2023/06/12 13:46:50;;;;;;;4.85;2.80;;;;;;;;;;5053941;28;20474;-74
2023/06/12 13:49:15;;;;;;;6.72;3.30;;;;;;;;;;5057651;28;20159;-74
2023/06/12 13:51:41;;;;;;;6.28;2.90;;;;;;;;;;5064074;28;20013;-75
2023/06/12 13:54:06;;;;;;;5.57;3.15;;;;;;;;;;5044533;28;20060;-75
2023/06/12 13:56:32;;;;;;;4.45;2.90;;;;;;;;;;5056259;28;20156;-75
2023/06/12 13:58:58;;;;;;;5.05;3.00;;;;;;;;;;5055430;28;20668;-76
2023/06/12 14:01:23;;;;;;;8.02;3.60;;;;;;;;;;5057706;28;20052;-77
2023/06/12 14:03:48;;;;;;;5.70;2.90;;;;;;;;;;5056376;28;20045;-76
2023/06/12 14:06:13;;;;;;;5.05;3.20;;;;;;;;;;5054835;28;20014;-76
2023/06/12 14:08:41;;;;;;;6.50;3.00;;;;;;;;;;5051390;28;20425;-78
2023/06/12 14:11:07;;;;;;;7.88;2.90;;;;;;;;;;5054240;28;20463;-77
2023/06/12 14:13:32;;;;;;;5.95;2.90;;;;;;;;;;5056562;28;20032;-78
2023/06/12 14:15:58;;;;;;;7.30;2.95;;;;;;;;;;5064205;28;20021;-79
2023/06/12 14:18:23;;;;;;;4.13;2.30;;;;;;;;;;5054946;28;20033;-76
2023/06/12 14:20:49;;;;;;;5.63;2.75;;;;;;;;;;5056853;28;20379;-75
2023/06/12 14:23:14;;;;;;;7.20;2.70;;;;;;;;;;5056221;28;20021;-77
2023/06/12 14:25:39;;;;;;;4.82;2.40;;;;;;;;;;5065887;28;20025;-76
2023/06/12 14:28:05;;;;;;;5.07;2.90;;;;;;;;;;5055519;28;20425;-77
2023/06/12 14:30:30;;;;;;;6.07;2.80;;;;;;;;;;5066605;28;20029;-77
2023/06/12 14:32:56;;;;;;;3.55;2.10;;;;;;;;;;5056788;28;20017;-70
2023/06/12 14:35:21;;;;;;;4.40;2.60;;;;;;;;;;5050575;28;20064;-75
2023/06/12 14:37:46;;;;;;;5.15;2.90;;;;;;;;;;5055890;28;20383;-77